sensor_id;sensor_type;location;lat;lon;timestamp;P1;durP1;ratioP1;P2;durP2;ratioP2
20928;SDS011;21895;47.072;15.132;2022-09-16T00:00:43;3.70;;;1.40;;
20928;SDS011;21895;47.072;15.132;2022-09-16T00:03:11;10.68;;;1.60;;
20928;SDS011;21895;47.072;15.132;2022-09-16T00:05:42;2.67;;;1.50;;
20928;SDS011;21895;47.072;15.132;2022-09-16T00:08:11;5.87;;;1.37;;
20928;SDS011;21895;47.072;15.132;2022-09-16T00:10:39;8.98;;;1.30;;
20928;SDS011;21895;47.072;15.132;2022-09-16T00:13:05;2.00;;;1.25;;
20928;SDS011;21895;47.072;15.132;2022-09-16T00:15:32;2.35;;;1.20;;
20928;SDS011;21895;47.072;15.132;2022-09-16T00:17:58;3.87;;;1.50;;
20928;SDS011;21895;47.072;15.132;2022-09-16T00:20:25;4.30;;;1.48;;
20928;SDS011;21895;47.072;15.132;2022-09-16T00:22:52;2.78;;;1.45;;
20928;SDS011;21895;47.072;15.132;2022-09-16T00:25:18;4.25;;;1.62;;
20928;SDS011;21895;47.072;15.132;2022-09-16T00:27:48;7.37;;;1.48;;
20928;SDS011;21895;47.072;15.132;2022-09-16T00:30:14;8.63;;;1.25;;
20928;SDS011;21895;47.072;15.132;2022-09-16T00:32:41;3.42;;;1.33;;
20928;SDS011;21895;47.072;15.132;2022-09-16T00:35:09;2.03;;;1.30;;
20928;SDS011;21895;47.072;15.132;2022-09-16T00:37:35;6.20;;;1.30;;
20928;SDS011;21895;47.072;15.132;2022-09-16T00:40:02;3.50;;;1.17;;
20928;SDS011;21895;47.072;15.132;2022-09-16T00:42:30;8.55;;;1.42;;
20928;SDS011;21895;47.072;15.132;2022-09-16T00:45:12;6.82;;;1.20;;
20928;SDS011;21895;47.072;15.132;2022-09-16T00:47:47;2.20;;;1.27;;
20928;SDS011;21895;47.072;15.132;2022-09-16T00:53:51;4.82;;;1.37;;
20928;SDS011;21895;47.072;15.132;2022-09-16T00:56:27;3.53;;;1.30;;
20928;SDS011;21895;47.072;15.132;2022-09-16T00:59:05;2.87;;;1.55;;
20928;SDS011;21895;47.072;15.132;2022-09-16T01:01:42;4.97;;;1.37;;
20928;SDS011;21895;47.072;15.132;2022-09-16T01:04:18;1.52;;;1.17;;
20928;SDS011;21895;47.072;15.132;2022-09-16T01:06:51;5.25;;;1.30;;
20928;SDS011;21895;47.072;15.132;2022-09-16T01:09:19;4.72;;;1.30;;
20928;SDS011;21895;47.072;15.132;2022-09-16T01:11:50;2.65;;;1.27;;
20928;SDS011;21895;47.072;15.132;2022-09-16T01:14:16;4.25;;;1.20;;
20928;SDS011;21895;47.072;15.132;2022-09-16T01:17:08;5.50;;;1.45;;
20928;SDS011;21895;47.072;15.132;2022-09-16T01:43:02;4.20;;;1.05;;
20928;SDS011;21895;47.072;15.132;2022-09-16T01:46:52;8.55;;;1.48;;
20928;SDS011;21895;47.072;15.132;2022-09-16T01:49:56;4.03;;;1.10;;
20928;SDS011;21895;47.072;15.132;2022-09-16T01:54:11;3.00;;;1.20;;
20928;SDS011;21895;47.072;15.132;2022-09-16T01:57:04;10.65;;;1.40;;
20928;SDS011;21895;47.072;15.132;2022-09-16T01:59:52;4.15;;;1.25;;
20928;SDS011;21895;47.072;15.132;2022-09-16T02:02:44;7.95;;;1.25;;
20928;SDS011;21895;47.072;15.132;2022-09-16T02:05:46;3.12;;;1.30;;
20928;SDS011;21895;47.072;15.132;2022-09-16T02:08:22;6.15;;;1.27;;
20928;SDS011;21895;47.072;15.132;2022-09-16T02:11:01;2.10;;;1.37;;
20928;SDS011;21895;47.072;15.132;2022-09-16T02:13:34;1.45;;;1.08;;
20928;SDS011;21895;47.072;15.132;2022-09-16T02:16:16;17.55;;;3.22;;
20928;SDS011;21895;47.072;15.132;2022-09-16T02:20:14;1.87;;;1.15;;
20928;SDS011;21895;47.072;15.132;2022-09-16T02:22:52;7.07;;;1.58;;
20928;SDS011;21895;47.072;15.132;2022-09-16T02:25:36;12.57;;;3.03;;
20928;SDS011;21895;47.072;15.132;2022-09-16T02:28:08;5.45;;;1.52;;
20928;SDS011;21895;47.072;15.132;2022-09-16T02:30:44;4.85;;;1.25;;
20928;SDS011;21895;47.072;15.132;2022-09-16T02:33:16;2.08;;;1.17;;
20928;SDS011;21895;47.072;15.132;2022-09-16T02:35:45;3.50;;;1.35;;
20928;SDS011;21895;47.072;15.132;2022-09-16T02:38:19;3.83;;;1.08;;
20928;SDS011;21895;47.072;15.132;2022-09-16T02:40:57;5.55;;;1.25;;
20928;SDS011;21895;47.072;15.132;2022-09-16T02:43:26;6.68;;;1.27;;
20928;SDS011;21895;47.072;15.132;2022-09-16T02:46:06;3.30;;;1.87;;
20928;SDS011;21895;47.072;15.132;2022-09-16T02:49:08;3.12;;;1.00;;
20928;SDS011;21895;47.072;15.132;2022-09-16T02:52:38;7.00;;;1.10;;
20928;SDS011;21895;47.072;15.132;2022-09-16T02:55:28;4.35;;;1.40;;
20928;SDS011;21895;47.072;15.132;2022-09-16T02:58:10;2.33;;;1.23;;
20928;SDS011;21895;47.072;15.132;2022-09-16T03:00:38;5.50;;;1.50;;
20928;SDS011;21895;47.072;15.132;2022-09-16T03:03:11;4.07;;;1.30;;
20928;SDS011;21895;47.072;15.132;2022-09-16T03:08:45;5.55;;;1.40;;
20928;SDS011;21895;47.072;15.132;2022-09-16T03:15:42;8.38;;;1.50;;
20928;SDS011;21895;47.072;15.132;2022-09-16T03:24:34;3.97;;;1.40;;
20928;SDS011;21895;47.072;15.132;2022-09-16T03:27:41;5.18;;;1.37;;
20928;SDS011;21895;47.072;15.132;2022-09-16T03:30:16;2.87;;;1.40;;
20928;SDS011;21895;47.072;15.132;2022-09-16T03:32:53;2.53;;;1.42;;
20928;SDS011;21895;47.072;15.132;2022-09-16T03:35:30;2.03;;;1.42;;
20928;SDS011;21895;47.072;15.132;2022-09-16T03:38:05;3.70;;;1.40;;
20928;SDS011;21895;47.072;15.132;2022-09-16T03:40:35;5.22;;;1.37;;
20928;SDS011;21895;47.072;15.132;2022-09-16T03:43:12;9.13;;;1.50;;
20928;SDS011;21895;47.072;15.132;2022-09-16T03:45:41;3.03;;;1.50;;
20928;SDS011;21895;47.072;15.132;2022-09-16T03:48:09;6.43;;;1.50;;
20928;SDS011;21895;47.072;15.132;2022-09-16T03:50:38;3.25;;;1.50;;
20928;SDS011;21895;47.072;15.132;2022-09-16T03:53:04;5.90;;;1.55;;
20928;SDS011;21895;47.072;15.132;2022-09-16T03:55:31;5.28;;;1.75;;
20928;SDS011;21895;47.072;15.132;2022-09-16T03:57:57;3.60;;;1.20;;
20928;SDS011;21895;47.072;15.132;2022-09-16T04:00:24;7.45;;;1.67;;
20928;SDS011;21895;47.072;15.132;2022-09-16T04:02:51;4.75;;;1.40;;
20928;SDS011;21895;47.072;15.132;2022-09-16T04:05:17;11.93;;;1.52;;
20928;SDS011;21895;47.072;15.132;2022-09-16T04:07:44;6.65;;;1.75;;
20928;SDS011;21895;47.072;15.132;2022-09-16T04:10:13;5.78;;;1.80;;
20928;SDS011;21895;47.072;15.132;2022-09-16T04:12:39;7.25;;;1.60;;
20928;SDS011;21895;47.072;15.132;2022-09-16T04:15:06;7.12;;;1.85;;
20928;SDS011;21895;47.072;15.132;2022-09-16T04:17:33;3.97;;;1.92;;
20928;SDS011;21895;47.072;15.132;2022-09-16T04:20:00;9.15;;;2.40;;
20928;SDS011;21895;47.072;15.132;2022-09-16T04:22:28;5.43;;;2.47;;
20928;SDS011;21895;47.072;15.132;2022-09-16T04:24:56;5.32;;;2.50;;
20928;SDS011;21895;47.072;15.132;2022-09-16T04:27:23;8.95;;;2.17;;
20928;SDS011;21895;47.072;15.132;2022-09-16T04:29:49;4.32;;;2.50;;
20928;SDS011;21895;47.072;15.132;2022-09-16T04:32:16;9.32;;;3.30;;
20928;SDS011;21895;47.072;15.132;2022-09-16T04:34:42;12.20;;;2.60;;
20928;SDS011;21895;47.072;15.132;2022-09-16T04:37:09;7.47;;;3.40;;
20928;SDS011;21895;47.072;15.132;2022-09-16T04:39:36;5.85;;;2.47;;
20928;SDS011;21895;47.072;15.132;2022-09-16T04:42:03;7.22;;;2.53;;
20928;SDS011;21895;47.072;15.132;2022-09-16T04:44:29;5.47;;;2.15;;
20928;SDS011;21895;47.072;15.132;2022-09-16T04:46:56;13.68;;;2.17;;
20928;SDS011;21895;47.072;15.132;2022-09-16T04:49:22;11.05;;;1.98;;
20928;SDS011;21895;47.072;15.132;2022-09-16T04:51:49;8.95;;;2.20;;
20928;SDS011;21895;47.072;15.132;2022-09-16T04:54:16;4.75;;;1.98;;
20928;SDS011;21895;47.072;15.132;2022-09-16T04:56:43;13.80;;;2.60;;
20928;SDS011;21895;47.072;15.132;2022-09-16T04:59:09;4.22;;;2.95;;
20928;SDS011;21895;47.072;15.132;2022-09-16T05:01:36;6.57;;;2.40;;
20928;SDS011;21895;47.072;15.132;2022-09-16T05:04:04;4.03;;;2.15;;
20928;SDS011;21895;47.072;15.132;2022-09-16T05:06:37;7.93;;;2.45;;
20928;SDS011;21895;47.072;15.132;2022-09-16T05:09:06;5.75;;;2.45;;
20928;SDS011;21895;47.072;15.132;2022-09-16T05:11:36;4.93;;;2.30;;
20928;SDS011;21895;47.072;15.132;2022-09-16T05:14:05;5.55;;;2.30;;
20928;SDS011;21895;47.072;15.132;2022-09-16T05:16:38;10.45;;;2.47;;
20928;SDS011;21895;47.072;15.132;2022-09-16T05:19:04;5.12;;;2.33;;
20928;SDS011;21895;47.072;15.132;2022-09-16T05:21:32;6.57;;;2.08;;
20928;SDS011;21895;47.072;15.132;2022-09-16T05:24:03;5.12;;;2.10;;
20928;SDS011;21895;47.072;15.132;2022-09-16T05:26:33;4.10;;;2.40;;
20928;SDS011;21895;47.072;15.132;2022-09-16T05:29:04;2.47;;;2.10;;
20928;SDS011;21895;47.072;15.132;2022-09-16T05:31:34;7.75;;;1.85;;
20928;SDS011;21895;47.072;15.132;2022-09-16T05:34:05;4.50;;;2.12;;
20928;SDS011;21895;47.072;15.132;2022-09-16T05:36:40;5.37;;;2.50;;
20928;SDS011;21895;47.072;15.132;2022-09-16T05:39:11;10.35;;;2.40;;
20928;SDS011;21895;47.072;15.132;2022-09-16T05:41:54;3.40;;;2.17;;
20928;SDS011;21895;47.072;15.132;2022-09-16T05:44:24;9.00;;;2.30;;
20928;SDS011;21895;47.072;15.132;2022-09-16T05:46:52;4.65;;;2.37;;
20928;SDS011;21895;47.072;15.132;2022-09-16T05:49:19;7.37;;;2.33;;
20928;SDS011;21895;47.072;15.132;2022-09-16T05:51:48;9.30;;;2.08;;
20928;SDS011;21895;47.072;15.132;2022-09-16T05:54:15;10.82;;;2.15;;
20928;SDS011;21895;47.072;15.132;2022-09-16T05:56:42;5.12;;;2.20;;
20928;SDS011;21895;47.072;15.132;2022-09-16T05:59:10;8.35;;;2.58;;
20928;SDS011;21895;47.072;15.132;2022-09-16T06:01:37;6.55;;;2.53;;
20928;SDS011;21895;47.072;15.132;2022-09-16T06:04:05;4.40;;;2.22;;
20928;SDS011;21895;47.072;15.132;2022-09-16T06:06:38;7.45;;;1.98;;
20928;SDS011;21895;47.072;15.132;2022-09-16T06:09:11;3.20;;;2.10;;
20928;SDS011;21895;47.072;15.132;2022-09-16T06:11:46;5.47;;;2.20;;
20928;SDS011;21895;47.072;15.132;2022-09-16T06:14:15;9.32;;;2.33;;
20928;SDS011;21895;47.072;15.132;2022-09-16T06:16:44;5.30;;;2.03;;
20928;SDS011;21895;47.072;15.132;2022-09-16T06:19:12;3.45;;;1.90;;
20928;SDS011;21895;47.072;15.132;2022-09-16T06:21:41;4.35;;;1.90;;
20928;SDS011;21895;47.072;15.132;2022-09-16T06:24:10;6.00;;;2.00;;
20928;SDS011;21895;47.072;15.132;2022-09-16T06:26:39;6.22;;;1.95;;
20928;SDS011;21895;47.072;15.132;2022-09-16T06:29:08;10.93;;;2.37;;
20928;SDS011;21895;47.072;15.132;2022-09-16T06:31:36;6.35;;;2.50;;
20928;SDS011;21895;47.072;15.132;2022-09-16T06:34:05;7.03;;;2.12;;
20928;SDS011;21895;47.072;15.132;2022-09-16T06:36:37;6.28;;;2.00;;
20928;SDS011;21895;47.072;15.132;2022-09-16T06:39:10;7.85;;;2.65;;
20928;SDS011;21895;47.072;15.132;2022-09-16T06:41:39;4.82;;;2.58;;
20928;SDS011;21895;47.072;15.132;2022-09-16T06:44:05;5.78;;;2.37;;
20928;SDS011;21895;47.072;15.132;2022-09-16T06:46:32;8.07;;;2.67;;
20928;SDS011;21895;47.072;15.132;2022-09-16T06:48:59;8.43;;;2.05;;
20928;SDS011;21895;47.072;15.132;2022-09-16T06:51:31;6.35;;;2.28;;
20928;SDS011;21895;47.072;15.132;2022-09-16T06:54:00;3.58;;;2.03;;
20928;SDS011;21895;47.072;15.132;2022-09-16T06:56:30;11.98;;;2.30;;
20928;SDS011;21895;47.072;15.132;2022-09-16T06:58:58;5.45;;;2.20;;
20928;SDS011;21895;47.072;15.132;2022-09-16T07:01:27;9.55;;;2.75;;
20928;SDS011;21895;47.072;15.132;2022-09-16T07:03:56;7.37;;;2.40;;
20928;SDS011;21895;47.072;15.132;2022-09-16T07:06:26;5.43;;;2.58;;
20928;SDS011;21895;47.072;15.132;2022-09-16T07:09:30;6.05;;;2.67;;
20928;SDS011;21895;47.072;15.132;2022-09-16T07:11:57;2.80;;;2.37;;
20928;SDS011;21895;47.072;15.132;2022-09-16T07:14:24;4.00;;;2.90;;
20928;SDS011;21895;47.072;15.132;2022-09-16T07:16:54;7.97;;;3.30;;
20928;SDS011;21895;47.072;15.132;2022-09-16T07:19:20;4.43;;;3.03;;
20928;SDS011;21895;47.072;15.132;2022-09-16T07:21:47;4.40;;;2.58;;
20928;SDS011;21895;47.072;15.132;2022-09-16T07:24:13;5.05;;;3.00;;
20928;SDS011;21895;47.072;15.132;2022-09-16T07:26:40;4.18;;;2.70;;
20928;SDS011;21895;47.072;15.132;2022-09-16T07:29:09;4.62;;;2.72;;
20928;SDS011;21895;47.072;15.132;2022-09-16T07:31:41;10.07;;;3.20;;
20928;SDS011;21895;47.072;15.132;2022-09-16T07:34:09;3.58;;;3.03;;
20928;SDS011;21895;47.072;15.132;2022-09-16T07:36:41;3.40;;;2.90;;
20928;SDS011;21895;47.072;15.132;2022-09-16T07:39:11;5.53;;;3.70;;
20928;SDS011;21895;47.072;15.132;2022-09-16T07:41:40;9.13;;;3.10;;
20928;SDS011;21895;47.072;15.132;2022-09-16T07:44:10;5.15;;;3.10;;
20928;SDS011;21895;47.072;15.132;2022-09-16T07:46:39;6.18;;;3.28;;
20928;SDS011;21895;47.072;15.132;2022-09-16T07:49:07;6.32;;;3.10;;
20928;SDS011;21895;47.072;15.132;2022-09-16T07:51:37;7.32;;;3.45;;
20928;SDS011;21895;47.072;15.132;2022-09-16T07:54:07;7.68;;;3.22;;
20928;SDS011;21895;47.072;15.132;2022-09-16T07:56:37;3.92;;;3.33;;
20928;SDS011;21895;47.072;15.132;2022-09-16T07:59:07;3.40;;;3.03;;
20928;SDS011;21895;47.072;15.132;2022-09-16T08:01:43;5.12;;;3.00;;
20928;SDS011;21895;47.072;15.132;2022-09-16T08:04:10;5.57;;;3.28;;
20928;SDS011;21895;47.072;15.132;2022-09-16T08:06:38;4.30;;;3.03;;
20928;SDS011;21895;47.072;15.132;2022-09-16T08:09:05;3.72;;;3.25;;
20928;SDS011;21895;47.072;15.132;2022-09-16T08:12:03;7.10;;;3.45;;
20928;SDS011;21895;47.072;15.132;2022-09-16T08:14:32;5.78;;;3.50;;
20928;SDS011;21895;47.072;15.132;2022-09-16T08:16:58;5.28;;;4.00;;
20928;SDS011;21895;47.072;15.132;2022-09-16T08:19:26;7.18;;;4.07;;
20928;SDS011;21895;47.072;15.132;2022-09-16T08:21:52;7.03;;;4.00;;
20928;SDS011;21895;47.072;15.132;2022-09-16T08:24:19;6.15;;;3.85;;
20928;SDS011;21895;47.072;15.132;2022-09-16T08:26:45;6.80;;;3.47;;
20928;SDS011;21895;47.072;15.132;2022-09-16T08:29:12;8.55;;;3.70;;
20928;SDS011;21895;47.072;15.132;2022-09-16T08:31:39;5.20;;;3.97;;
20928;SDS011;21895;47.072;15.132;2022-09-16T08:34:05;4.62;;;3.62;;
20928;SDS011;21895;47.072;15.132;2022-09-16T08:36:32;5.80;;;3.15;;
20928;SDS011;21895;47.072;15.132;2022-09-16T08:38:59;4.57;;;2.85;;
20928;SDS011;21895;47.072;15.132;2022-09-16T08:41:52;4.78;;;2.53;;
20928;SDS011;21895;47.072;15.132;2022-09-16T08:47:03;3.60;;;2.80;;
20928;SDS011;21895;47.072;15.132;2022-09-16T08:49:46;2.42;;;2.22;;
20928;SDS011;21895;47.072;15.132;2022-09-16T08:52:26;12.68;;;2.53;;
20928;SDS011;21895;47.072;15.132;2022-09-16T08:55:17;4.50;;;2.40;;
20928;SDS011;21895;47.072;15.132;2022-09-16T08:58:22;3.20;;;1.95;;
20928;SDS011;21895;47.072;15.132;2022-09-16T09:00:57;2.60;;;1.95;;
20928;SDS011;21895;47.072;15.132;2022-09-16T09:03:34;2.12;;;1.80;;
20928;SDS011;21895;47.072;15.132;2022-09-16T09:06:50;2.70;;;2.08;;
20928;SDS011;21895;47.072;15.132;2022-09-16T09:09:57;4.97;;;1.95;;
20928;SDS011;21895;47.072;15.132;2022-09-16T09:15:43;2.87;;;1.90;;
20928;SDS011;21895;47.072;15.132;2022-09-16T09:19:12;2.00;;;1.62;;
20928;SDS011;21895;47.072;15.132;2022-09-16T09:22:21;3.28;;;1.40;;
20928;SDS011;21895;47.072;15.132;2022-09-16T09:49:36;1.70;;;1.60;;
20928;SDS011;21895;47.072;15.132;2022-09-16T09:55:12;2.92;;;1.90;;
20928;SDS011;21895;47.072;15.132;2022-09-16T09:58:04;1.95;;;1.77;;
20928;SDS011;21895;47.072;15.132;2022-09-16T10:00:43;2.05;;;1.85;;
20928;SDS011;21895;47.072;15.132;2022-09-16T10:03:11;2.17;;;1.50;;
20928;SDS011;21895;47.072;15.132;2022-09-16T10:05:42;2.45;;;1.23;;
20928;SDS011;21895;47.072;15.132;2022-09-16T10:08:24;1.85;;;1.60;;
20928;SDS011;21895;47.072;15.132;2022-09-16T10:11:19;2.20;;;1.35;;
20928;SDS011;21895;47.072;15.132;2022-09-16T10:13:49;1.65;;;1.00;;
20928;SDS011;21895;47.072;15.132;2022-09-16T10:16:30;2.05;;;0.93;;
20928;SDS011;21895;47.072;15.132;2022-09-16T10:19:21;1.40;;;1.30;;
20928;SDS011;21895;47.072;15.132;2022-09-16T10:21:54;2.45;;;1.62;;
20928;SDS011;21895;47.072;15.132;2022-09-16T10:24:43;3.58;;;1.40;;
20928;SDS011;21895;47.072;15.132;2022-09-16T10:27:24;4.07;;;1.65;;
20928;SDS011;21895;47.072;15.132;2022-09-16T10:30:11;1.70;;;1.50;;
20928;SDS011;21895;47.072;15.132;2022-09-16T10:33:05;2.00;;;1.47;;
20928;SDS011;21895;47.072;15.132;2022-09-16T10:35:40;2.85;;;1.80;;
20928;SDS011;21895;47.072;15.132;2022-09-16T10:38:34;2.47;;;1.52;;
20928;SDS011;21895;47.072;15.132;2022-09-16T10:41:06;2.33;;;1.40;;
20928;SDS011;21895;47.072;15.132;2022-09-16T10:44:21;1.48;;;1.33;;
20928;SDS011;21895;47.072;15.132;2022-09-16T10:46:58;2.78;;;1.20;;
20928;SDS011;21895;47.072;15.132;2022-09-16T10:49:36;2.28;;;1.17;;
20928;SDS011;21895;47.072;15.132;2022-09-16T10:52:20;1.70;;;1.20;;
20928;SDS011;21895;47.072;15.132;2022-09-16T10:54:49;3.30;;;1.10;;
20928;SDS011;21895;47.072;15.132;2022-09-16T10:57:21;1.20;;;1.10;;
20928;SDS011;21895;47.072;15.132;2022-09-16T11:10:57;1.02;;;0.90;;
20928;SDS011;21895;47.072;15.132;2022-09-16T11:15:51;0.95;;;0.70;;
20928;SDS011;21895;47.072;15.132;2022-09-16T11:20:09;0.70;;;0.70;;
20928;SDS011;21895;47.072;15.132;2022-09-16T11:23:54;0.82;;;0.82;;
20928;SDS011;21895;47.072;15.132;2022-09-16T11:27:23;0.57;;;0.57;;
20928;SDS011;21895;47.072;15.132;2022-09-16T11:37:29;1.80;;;1.00;;
20928;SDS011;21895;47.072;15.132;2022-09-16T11:47:17;0.75;;;0.70;;
20928;SDS011;21895;47.072;15.132;2022-09-16T11:50:23;1.33;;;1.00;;
20928;SDS011;21895;47.072;15.132;2022-09-16T11:57:03;4.90;;;0.60;;
20928;SDS011;21895;47.072;15.132;2022-09-16T12:02:59;0.50;;;0.50;;
20928;SDS011;21895;47.072;15.132;2022-09-16T12:05:48;6.53;;;0.57;;
20928;SDS011;21895;47.072;15.132;2022-09-16T12:08:29;0.55;;;0.55;;
20928;SDS011;21895;47.072;15.132;2022-09-16T12:11:45;0.80;;;0.45;;
20928;SDS011;21895;47.072;15.132;2022-09-16T12:14:21;0.50;;;0.50;;
20928;SDS011;21895;47.072;15.132;2022-09-16T12:17:05;1.55;;;0.50;;
20928;SDS011;21895;47.072;15.132;2022-09-16T12:19:44;2.30;;;0.50;;
20928;SDS011;21895;47.072;15.132;2022-09-16T12:22:28;0.50;;;0.50;;
20928;SDS011;21895;47.072;15.132;2022-09-16T12:25:28;3.87;;;0.65;;
20928;SDS011;21895;47.072;15.132;2022-09-16T12:28:19;1.25;;;0.60;;
20928;SDS011;21895;47.072;15.132;2022-09-16T12:32:24;0.75;;;0.65;;
20928;SDS011;21895;47.072;15.132;2022-09-16T12:40:12;0.70;;;0.70;;
20928;SDS011;21895;47.072;15.132;2022-09-16T12:43:08;0.80;;;0.75;;
20928;SDS011;21895;47.072;15.132;2022-09-16T12:48:44;1.42;;;0.82;;
20928;SDS011;21895;47.072;15.132;2022-09-16T12:55:04;1.30;;;1.20;;
20928;SDS011;21895;47.072;15.132;2022-09-16T13:01:03;1.62;;;1.40;;
20928;SDS011;21895;47.072;15.132;2022-09-16T13:03:52;1.40;;;1.30;;
20928;SDS011;21895;47.072;15.132;2022-09-16T13:06:34;3.87;;;1.90;;
20928;SDS011;21895;47.072;15.132;2022-09-16T13:09:12;3.00;;;1.77;;
20928;SDS011;21895;47.072;15.132;2022-09-16T13:11:55;4.18;;;1.67;;
20928;SDS011;21895;47.072;15.132;2022-09-16T13:15:23;2.30;;;1.65;;
20928;SDS011;21895;47.072;15.132;2022-09-16T13:18:06;1.87;;;1.58;;
20928;SDS011;21895;47.072;15.132;2022-09-16T13:21:30;4.22;;;1.73;;
20928;SDS011;21895;47.072;15.132;2022-09-16T13:24:19;3.08;;;2.10;;
20928;SDS011;21895;47.072;15.132;2022-09-16T13:30:35;3.20;;;2.60;;
20928;SDS011;21895;47.072;15.132;2022-09-16T13:33:24;5.10;;;2.30;;
20928;SDS011;21895;47.072;15.132;2022-09-16T13:39:30;3.15;;;2.70;;
20928;SDS011;21895;47.072;15.132;2022-09-16T13:47:13;2.95;;;2.35;;
20928;SDS011;21895;47.072;15.132;2022-09-16T13:49:58;2.30;;;2.08;;
20928;SDS011;21895;47.072;15.132;2022-09-16T13:52:36;2.62;;;2.20;;
20928;SDS011;21895;47.072;15.132;2022-09-16T13:55:16;3.17;;;2.72;;
20928;SDS011;21895;47.072;15.132;2022-09-16T13:58:05;3.00;;;2.45;;
20928;SDS011;21895;47.072;15.132;2022-09-16T14:07:19;3.17;;;2.25;;
20928;SDS011;21895;47.072;15.132;2022-09-16T14:13:10;1.87;;;1.70;;
20928;SDS011;21895;47.072;15.132;2022-09-16T14:15:51;3.12;;;1.50;;
20928;SDS011;21895;47.072;15.132;2022-09-16T14:18:25;1.42;;;1.33;;
20928;SDS011;21895;47.072;15.132;2022-09-16T14:21:37;2.05;;;1.42;;
20928;SDS011;21895;47.072;15.132;2022-09-16T14:24:16;2.17;;;1.85;;
20928;SDS011;21895;47.072;15.132;2022-09-16T14:26:49;1.10;;;1.10;;
20928;SDS011;21895;47.072;15.132;2022-09-16T14:29:20;1.33;;;1.23;;
20928;SDS011;21895;47.072;15.132;2022-09-16T14:31:50;1.27;;;1.17;;
20928;SDS011;21895;47.072;15.132;2022-09-16T14:35:21;1.50;;;1.40;;
20928;SDS011;21895;47.072;15.132;2022-09-16T14:37:52;1.77;;;1.40;;
20928;SDS011;21895;47.072;15.132;2022-09-16T14:40:36;3.30;;;1.42;;
20928;SDS011;21895;47.072;15.132;2022-09-16T14:43:06;1.55;;;1.40;;
20928;SDS011;21895;47.072;15.132;2022-09-16T14:45:43;1.48;;;1.33;;
20928;SDS011;21895;47.072;15.132;2022-09-16T14:48:16;1.37;;;1.27;;
20928;SDS011;21895;47.072;15.132;2022-09-16T14:50:53;1.87;;;1.52;;
20928;SDS011;21895;47.072;15.132;2022-09-16T14:53:28;1.30;;;1.17;;
20928;SDS011;21895;47.072;15.132;2022-09-16T14:56:03;1.23;;;1.10;;
20928;SDS011;21895;47.072;15.132;2022-09-16T14:58:31;3.28;;;1.45;;
20928;SDS011;21895;47.072;15.132;2022-09-16T15:01:01;1.75;;;1.40;;
20928;SDS011;21895;47.072;15.132;2022-09-16T15:03:44;1.90;;;1.40;;
20928;SDS011;21895;47.072;15.132;2022-09-16T15:06:26;1.98;;;1.40;;
20928;SDS011;21895;47.072;15.132;2022-09-16T15:09:02;1.17;;;1.08;;
20928;SDS011;21895;47.072;15.132;2022-09-16T15:11:48;1.73;;;1.35;;
20928;SDS011;21895;47.072;15.132;2022-09-16T15:14:24;1.37;;;1.27;;
20928;SDS011;21895;47.072;15.132;2022-09-16T15:16:52;1.35;;;1.15;;
20928;SDS011;21895;47.072;15.132;2022-09-16T15:19:27;1.87;;;1.30;;
20928;SDS011;21895;47.072;15.132;2022-09-16T15:22:05;1.73;;;1.10;;
20928;SDS011;21895;47.072;15.132;2022-09-16T15:24:38;2.80;;;1.33;;
20928;SDS011;21895;47.072;15.132;2022-09-16T15:27:06;2.95;;;1.02;;
20928;SDS011;21895;47.072;15.132;2022-09-16T15:29:34;1.30;;;1.20;;
20928;SDS011;21895;47.072;15.132;2022-09-16T15:32:14;1.98;;;1.40;;
20928;SDS011;21895;47.072;15.132;2022-09-16T15:34:49;1.20;;;1.10;;
20928;SDS011;21895;47.072;15.132;2022-09-16T15:37:53;1.58;;;1.23;;
20928;SDS011;21895;47.072;15.132;2022-09-16T15:40:30;1.50;;;1.40;;
20928;SDS011;21895;47.072;15.132;2022-09-16T15:43:11;3.75;;;1.50;;
20928;SDS011;21895;47.072;15.132;2022-09-16T15:45:59;1.33;;;1.23;;
20928;SDS011;21895;47.072;15.132;2022-09-16T15:48:33;1.40;;;1.30;;
20928;SDS011;21895;47.072;15.132;2022-09-16T15:51:09;2.67;;;1.40;;
20928;SDS011;21895;47.072;15.132;2022-09-16T15:59:41;1.35;;;1.23;;
20928;SDS011;21895;47.072;15.132;2022-09-16T16:03:18;1.75;;;1.42;;
20928;SDS011;21895;47.072;15.132;2022-09-16T16:05:49;1.40;;;1.30;;
20928;SDS011;21895;47.072;15.132;2022-09-16T16:08:35;1.50;;;1.23;;
20928;SDS011;21895;47.072;15.132;2022-09-16T16:11:17;1.50;;;1.40;;
20928;SDS011;21895;47.072;15.132;2022-09-16T16:13:46;1.45;;;1.35;;
20928;SDS011;21895;47.072;15.132;2022-09-16T16:16:15;2.05;;;1.40;;
20928;SDS011;21895;47.072;15.132;2022-09-16T16:18:43;2.08;;;1.60;;
20928;SDS011;21895;47.072;15.132;2022-09-16T16:21:12;4.12;;;1.48;;
20928;SDS011;21895;47.072;15.132;2022-09-16T16:23:41;2.87;;;1.42;;
20928;SDS011;21895;47.072;15.132;2022-09-16T16:26:08;1.70;;;1.45;;
20928;SDS011;21895;47.072;15.132;2022-09-16T16:28:36;1.90;;;1.70;;
20928;SDS011;21895;47.072;15.132;2022-09-16T16:31:13;4.25;;;1.75;;
20928;SDS011;21895;47.072;15.132;2022-09-16T16:33:43;3.30;;;1.60;;
20928;SDS011;21895;47.072;15.132;2022-09-16T16:36:12;2.08;;;1.60;;
20928;SDS011;21895;47.072;15.132;2022-09-16T16:38:41;2.20;;;1.58;;
20928;SDS011;21895;47.072;15.132;2022-09-16T16:41:09;1.45;;;1.35;;
20928;SDS011;21895;47.072;15.132;2022-09-16T16:43:38;6.82;;;1.75;;
20928;SDS011;21895;47.072;15.132;2022-09-16T16:46:05;2.67;;;1.40;;
20928;SDS011;21895;47.072;15.132;2022-09-16T16:48:31;1.77;;;1.67;;
20928;SDS011;21895;47.072;15.132;2022-09-16T16:50:59;2.75;;;1.65;;
20928;SDS011;21895;47.072;15.132;2022-09-16T16:53:29;1.55;;;1.45;;
20928;SDS011;21895;47.072;15.132;2022-09-16T16:56:29;2.65;;;1.80;;
20928;SDS011;21895;47.072;15.132;2022-09-16T16:58:55;2.75;;;1.60;;
20928;SDS011;21895;47.072;15.132;2022-09-16T17:01:22;2.17;;;1.83;;
20928;SDS011;21895;47.072;15.132;2022-09-16T17:03:49;2.30;;;2.10;;
20928;SDS011;21895;47.072;15.132;2022-09-16T17:06:16;3.83;;;1.92;;
20928;SDS011;21895;47.072;15.132;2022-09-16T17:08:43;2.30;;;1.80;;
20928;SDS011;21895;47.072;15.132;2022-09-16T17:11:13;2.17;;;1.70;;
20928;SDS011;21895;47.072;15.132;2022-09-16T17:13:46;3.20;;;1.80;;
20928;SDS011;21895;47.072;15.132;2022-09-16T17:16:19;2.50;;;2.15;;
20928;SDS011;21895;47.072;15.132;2022-09-16T17:18:49;1.98;;;1.77;;
20928;SDS011;21895;47.072;15.132;2022-09-16T17:21:35;3.08;;;1.40;;
20928;SDS011;21895;47.072;15.132;2022-09-16T17:24:01;5.72;;;1.80;;
20928;SDS011;21895;47.072;15.132;2022-09-16T17:26:28;7.57;;;1.92;;
20928;SDS011;21895;47.072;15.132;2022-09-16T17:28:55;3.28;;;2.00;;
20928;SDS011;21895;47.072;15.132;2022-09-16T17:31:23;9.27;;;5.32;;
20928;SDS011;21895;47.072;15.132;2022-09-16T17:33:57;24.40;;;8.43;;
20928;SDS011;21895;47.072;15.132;2022-09-16T17:36:34;9.95;;;4.20;;
20928;SDS011;21895;47.072;15.132;2022-09-16T17:39:07;14.40;;;6.37;;
20928;SDS011;21895;47.072;15.132;2022-09-16T17:41:41;4.30;;;2.30;;
20928;SDS011;21895;47.072;15.132;2022-09-16T17:44:10;2.40;;;1.85;;
20928;SDS011;21895;47.072;15.132;2022-09-16T17:46:38;4.68;;;1.77;;
20928;SDS011;21895;47.072;15.132;2022-09-16T17:49:11;4.32;;;1.52;;
20928;SDS011;21895;47.072;15.132;2022-09-16T17:51:46;1.77;;;1.53;;
20928;SDS011;21895;47.072;15.132;2022-09-16T17:54:13;2.15;;;1.75;;
20928;SDS011;21895;47.072;15.132;2022-09-16T17:56:40;2.87;;;1.85;;
20928;SDS011;21895;47.072;15.132;2022-09-16T17:59:08;4.93;;;1.90;;
20928;SDS011;21895;47.072;15.132;2022-09-16T18:01:36;2.12;;;1.70;;
20928;SDS011;21895;47.072;15.132;2022-09-16T18:04:03;3.08;;;1.80;;